createdAt,value
2023-05-02T00:00:05.660Z,3.20
2023-05-02T00:01:07.293Z,3.80
2023-05-02T00:02:08.830Z,3.07
2023-05-02T00:03:10.898Z,3.23
2023-05-02T00:04:12.776Z,3.00
2023-05-02T00:05:14.264Z,2.90
2023-05-02T00:06:15.905Z,3.20
2023-05-02T00:07:17.349Z,3.30
2023-05-02T00:08:19.057Z,3.53
2023-05-02T00:09:20.977Z,3.70
2023-05-02T00:10:22.623Z,3.33
2023-05-02T00:11:24.444Z,2.93
2023-05-02T00:12:25.993Z,3.13
2023-05-02T00:13:27.375Z,3.80
2023-05-02T00:14:29.277Z,3.10
2023-05-02T00:15:30.876Z,3.30
2023-05-02T00:16:32.335Z,3.20
2023-05-02T00:17:34.015Z,3.60
2023-05-02T00:18:35.549Z,4.47
2023-05-02T00:19:40.144Z,3.27
2023-05-02T00:20:42.072Z,3.53
2023-05-02T00:21:43.895Z,3.00
2023-05-02T00:22:45.555Z,3.60
2023-05-02T00:23:47.021Z,3.80
2023-05-02T00:24:48.671Z,3.97
2023-05-02T00:25:50.166Z,3.17
2023-05-02T00:26:52.324Z,3.30
2023-05-02T00:27:54.796Z,3.40
2023-05-02T00:28:56.388Z,3.20
2023-05-02T00:29:59.634Z,3.70
2023-05-02T00:31:01.676Z,3.20
2023-05-02T00:32:03.276Z,2.90
2023-05-02T00:33:06.968Z,3.17
2023-05-02T00:34:08.474Z,3.90
2023-05-02T00:35:10.471Z,2.97
2023-05-02T00:36:19.367Z,3.40
2023-05-02T00:37:21.159Z,3.63
2023-05-02T00:38:22.971Z,3.10
2023-05-02T00:39:24.585Z,3.27
2023-05-02T00:40:26.603Z,4.23
2023-05-02T00:41:28.229Z,3.20
2023-05-02T00:42:31.599Z,3.73
2023-05-02T00:43:33.479Z,3.20
2023-05-02T00:44:34.912Z,3.37
2023-05-02T00:45:36.894Z,3.60
2023-05-02T00:46:38.425Z,3.90
2023-05-02T00:47:40.345Z,3.43
2023-05-02T00:48:41.919Z,3.50
2023-05-02T00:49:43.487Z,3.60
2023-05-02T00:50:45.033Z,3.70
2023-05-02T00:51:46.897Z,3.23
2023-05-02T00:52:49.015Z,3.30
2023-05-02T00:53:51.082Z,3.30
2023-05-02T00:54:52.750Z,3.60
2023-05-02T00:55:54.372Z,3.03
2023-05-02T00:56:56.236Z,3.40
2023-05-02T00:57:58.465Z,3.40
2023-05-02T00:59:01.454Z,3.80
2023-05-02T01:00:04.643Z,3.30
2023-05-02T01:01:24.785Z,3.33
2023-05-02T01:02:43.560Z,2.90
2023-05-02T01:04:00.382Z,3.57
2023-05-02T01:05:39.952Z,3.30
2023-05-02T01:06:57.148Z,3.47
2023-05-02T01:08:29.032Z,3.87
2023-05-02T01:10:09.380Z,3.20
2023-05-02T01:11:24.977Z,3.00
2023-05-02T01:12:56.638Z,3.30
2023-05-02T01:14:01.876Z,2.90
2023-05-02T01:15:08.194Z,3.60
2023-05-02T01:16:11.635Z,3.27
2023-05-02T01:17:15.692Z,2.93
2023-05-02T01:18:21.252Z,3.20
2023-05-02T01:19:29.255Z,2.80
2023-05-02T01:20:32.960Z,3.13
2023-05-02T01:21:34.787Z,3.07
2023-05-02T01:22:40.925Z,3.30
2023-05-02T01:24:06.828Z,2.90
2023-05-02T01:25:31.316Z,3.33
2023-05-02T01:26:43.086Z,3.30
2023-05-02T01:27:50.713Z,3.30
2023-05-02T01:29:01.388Z,4.03
2023-05-02T01:30:04.671Z,2.77
2023-05-02T01:31:06.953Z,3.10
2023-05-02T01:32:10.844Z,3.73
2023-05-02T01:33:16.991Z,3.37
2023-05-02T01:34:21.847Z,3.40
2023-05-02T01:35:25.976Z,3.20
2023-05-02T01:36:31.634Z,3.40
2023-05-02T01:37:34.080Z,3.47
2023-05-02T01:38:37.545Z,3.00
2023-05-02T01:39:41.263Z,3.50
2023-05-02T01:40:46.799Z,2.70
2023-05-02T01:41:53.500Z,3.13
2023-05-02T01:42:56.231Z,3.70
2023-05-02T01:43:59.925Z,3.03
2023-05-02T01:45:04.883Z,3.07
2023-05-02T01:46:09.627Z,2.83
2023-05-02T01:47:12.327Z,3.47
2023-05-02T01:48:15.666Z,2.93
2023-05-02T01:49:19.306Z,3.10
2023-05-02T01:50:24.106Z,3.77
2023-05-02T01:51:32.148Z,3.83
2023-05-02T01:52:34.474Z,3.27
2023-05-02T01:53:38.109Z,3.13
2023-05-02T01:54:41.169Z,3.13
2023-05-02T01:55:45.745Z,3.20
2023-05-02T01:56:49.325Z,3.60
2023-05-02T01:57:54.427Z,3.03
2023-05-02T01:58:56.791Z,3.10
2023-05-02T01:59:59.964Z,3.27
2023-05-02T02:01:03.603Z,3.40
2023-05-02T02:02:07.879Z,3.30
2023-05-02T02:03:10.460Z,3.10
2023-05-02T02:04:16.122Z,3.47
2023-05-02T02:05:19.483Z,3.00
2023-05-02T02:06:22.321Z,3.37
2023-05-02T02:07:24.345Z,3.27
2023-05-02T02:08:26.145Z,3.20
2023-05-02T02:09:27.584Z,3.70
2023-05-02T02:10:36.061Z,3.70
2023-05-02T02:11:53.858Z,3.30
2023-05-02T02:13:09.217Z,3.60
2023-05-02T02:14:22.366Z,3.50
2023-05-02T02:15:34.259Z,3.40
2023-05-02T02:16:41.629Z,3.03
2023-05-02T02:17:49.233Z,3.53
2023-05-02T02:18:54.987Z,4.13
2023-05-02T02:20:01.076Z,3.50
2023-05-02T02:21:05.267Z,3.30
2023-05-02T02:22:08.888Z,3.00
2023-05-02T02:23:12.695Z,3.43
2023-05-02T02:24:18.032Z,3.63
2023-05-02T02:25:19.936Z,2.60
2023-05-02T02:26:23.482Z,3.27
2023-05-02T02:27:25.619Z,4.00
2023-05-02T02:28:27.149Z,3.40
2023-05-02T02:29:30.086Z,3.23
2023-05-02T02:30:32.292Z,4.10
2023-05-02T02:31:36.173Z,3.60
2023-05-02T02:32:37.772Z,3.63
2023-05-02T02:33:39.979Z,3.40
2023-05-02T02:34:41.419Z,3.83
2023-05-02T02:35:48.536Z,3.80
2023-05-02T02:36:55.821Z,3.67
2023-05-02T02:38:23.326Z,3.70
2023-05-02T02:39:30.880Z,3.70
2023-05-02T02:40:42.406Z,3.60
2023-05-02T02:42:03.631Z,3.83
2023-05-02T02:43:23.994Z,3.43
2023-05-02T02:44:32.924Z,3.30
2023-05-02T02:45:40.487Z,3.17
2023-05-02T02:46:41.995Z,3.60
2023-05-02T02:48:04.029Z,3.40
2023-05-02T02:49:18.810Z,3.57
2023-05-02T02:50:38.140Z,3.83
2023-05-02T02:51:47.319Z,3.70
2023-05-02T02:52:52.921Z,4.40
2023-05-02T02:54:15.497Z,3.73
2023-05-02T02:55:44.938Z,3.53
2023-05-02T02:56:50.953Z,3.90
2023-05-02T02:58:14.624Z,3.53
2023-05-02T03:00:03.896Z,3.37
2023-05-02T03:01:10.959Z,3.87
2023-05-02T03:02:17.235Z,4.20
2023-05-02T03:03:20.762Z,3.77
2023-05-02T03:04:23.769Z,3.87
2023-05-02T03:05:26.414Z,4.37
2023-05-02T03:06:28.957Z,4.10
2023-05-02T03:07:31.843Z,3.77
2023-05-02T03:08:42.932Z,3.87
2023-05-02T03:09:49.069Z,3.17
2023-05-02T03:10:55.538Z,3.80
2023-05-02T03:11:57.538Z,3.67
2023-05-02T03:13:00.408Z,2.93
2023-05-02T03:14:01.796Z,3.27
2023-05-02T03:15:51.753Z,3.43
2023-05-02T03:16:57.561Z,3.37
2023-05-02T03:17:59.411Z,3.37
2023-05-02T03:19:01.731Z,3.30
2023-05-02T03:20:04.798Z,3.87
2023-05-02T03:21:07.307Z,3.40
2023-05-02T03:22:09.223Z,4.00
2023-05-02T03:23:11.484Z,3.30
2023-05-02T03:24:13.583Z,3.20
2023-05-02T03:25:15.162Z,3.17
2023-05-02T03:26:21.285Z,3.30
2023-05-02T03:27:23.214Z,3.57
2023-05-02T03:28:25.265Z,3.73
2023-05-02T03:29:28.745Z,3.17
2023-05-02T03:30:30.473Z,3.40
2023-05-02T03:31:32.022Z,4.03
2023-05-02T03:32:34.189Z,3.37
2023-05-02T03:33:36.082Z,3.50
2023-05-02T03:34:38.000Z,3.20
2023-05-02T03:35:39.648Z,3.57
2023-05-02T03:36:41.727Z,3.60
2023-05-02T03:37:43.250Z,3.23
2023-05-02T03:38:44.719Z,3.33
2023-05-02T03:39:47.673Z,3.70
2023-05-02T03:40:49.363Z,3.30
2023-05-02T03:41:51.216Z,3.90
2023-05-02T03:42:56.091Z,4.00
2023-05-02T03:44:03.743Z,3.60
2023-05-02T03:45:09.492Z,3.23
2023-05-02T03:46:11.941Z,3.27
2023-05-02T03:47:17.182Z,3.40
2023-05-02T03:48:19.849Z,3.43
2023-05-02T03:49:21.801Z,2.50
2023-05-02T03:50:26.034Z,3.23
2023-05-02T03:51:28.326Z,3.40
2023-05-02T03:52:31.901Z,3.33
2023-05-02T03:53:33.503Z,3.77
2023-05-02T03:54:35.146Z,3.53
2023-05-02T03:55:43.502Z,2.80
2023-05-02T03:56:51.042Z,3.03
2023-05-02T03:58:01.127Z,3.17
2023-05-02T03:59:02.732Z,3.30
2023-05-02T04:00:05.110Z,3.20
2023-05-02T04:01:16.730Z,3.90
2023-05-02T04:02:21.864Z,2.97
2023-05-02T04:03:24.280Z,3.30
2023-05-02T04:04:26.182Z,3.20
2023-05-02T04:05:29.679Z,3.53
2023-05-02T04:06:32.041Z,3.27
2023-05-02T04:07:37.384Z,3.43
2023-05-02T04:08:41.494Z,2.83
2023-05-02T04:09:43.966Z,3.43
2023-05-02T04:10:47.690Z,3.20
2023-05-02T04:11:49.364Z,3.33
2023-05-02T04:12:50.775Z,3.00
2023-05-02T04:13:53.533Z,3.13
2023-05-02T04:14:55.734Z,3.33
2023-05-02T04:16:01.561Z,3.03
2023-05-02T04:17:06.997Z,3.20
2023-05-02T04:18:19.214Z,2.90
2023-05-02T04:19:21.024Z,3.07
2023-05-02T04:20:22.831Z,3.37
2023-05-02T04:21:26.167Z,2.73
2023-05-02T04:22:27.730Z,3.70
2023-05-02T04:23:35.075Z,2.93
2023-05-02T04:24:37.575Z,3.33
2023-05-02T04:25:39.181Z,3.60
2023-05-02T04:26:41.610Z,3.50
2023-05-02T04:27:46.447Z,3.20
2023-05-02T04:28:51.374Z,3.40
2023-05-02T04:29:53.986Z,3.73
2023-05-02T04:30:57.918Z,3.10
2023-05-02T04:32:00.888Z,3.50
2023-05-02T04:33:04.410Z,2.90
2023-05-02T04:34:09.657Z,2.80
2023-05-02T04:35:17.621Z,3.10
2023-05-02T04:36:21.660Z,3.57
2023-05-02T04:37:23.475Z,3.40
2023-05-02T04:38:25.559Z,2.90
2023-05-02T04:39:26.978Z,3.03
2023-05-02T04:40:42.520Z,3.00
2023-05-02T04:41:44.525Z,3.00
2023-05-02T04:42:46.826Z,3.10
2023-05-02T04:43:52.096Z,3.30
2023-05-02T04:44:54.179Z,3.00
2023-05-02T04:45:56.339Z,3.20
2023-05-02T04:47:02.273Z,3.20
2023-05-02T04:48:04.356Z,2.77
2023-05-02T04:49:07.205Z,2.73
2023-05-02T04:50:09.398Z,2.90
2023-05-02T04:51:11.138Z,3.23
2023-05-02T04:52:12.938Z,2.97
2023-05-02T04:53:14.343Z,3.03
2023-05-02T04:54:15.856Z,3.13
2023-05-02T04:55:18.400Z,3.43
2023-05-02T04:56:20.138Z,2.80
2023-05-02T04:57:23.334Z,3.30
2023-05-02T04:58:29.030Z,3.30
2023-05-02T04:59:34.969Z,2.80
2023-05-02T05:00:37.335Z,3.40
2023-05-02T05:01:39.768Z,3.23
2023-05-02T05:02:43.388Z,3.07
2023-05-02T05:03:47.182Z,3.33
2023-05-02T05:04:51.063Z,2.83
2023-05-02T05:05:54.060Z,3.00
2023-05-02T05:06:57.385Z,2.93
2023-05-02T05:08:01.544Z,3.27
2023-05-02T05:09:07.166Z,3.20
2023-05-02T05:10:11.430Z,2.70
2023-05-02T05:11:23.055Z,3.60
2023-05-02T05:12:24.809Z,3.37
2023-05-02T05:13:27.158Z,2.93
2023-05-02T05:14:28.685Z,3.23
2023-05-02T05:15:30.973Z,3.67
2023-05-02T05:16:35.484Z,3.47
2023-05-02T05:17:37.728Z,3.33
2023-05-02T05:18:42.511Z,2.90
2023-05-02T05:19:47.039Z,3.17
2023-05-02T05:20:48.509Z,3.30
2023-05-02T05:21:50.430Z,3.37
2023-05-02T05:22:54.051Z,3.83
2023-05-02T05:23:57.086Z,3.20
2023-05-02T05:25:02.285Z,4.50
2023-05-02T05:26:15.863Z,3.07
2023-05-02T05:27:20.819Z,2.50
2023-05-02T05:28:22.664Z,3.40
2023-05-02T05:29:24.539Z,3.70
2023-05-02T05:30:26.919Z,3.60
2023-05-02T05:31:28.934Z,3.20
2023-05-02T05:32:33.870Z,3.17
2023-05-02T05:33:36.569Z,3.10
2023-05-02T05:34:39.021Z,3.50
2023-05-02T05:35:40.687Z,3.27
2023-05-02T05:36:42.935Z,2.90
2023-05-02T05:37:44.852Z,2.87
2023-05-02T05:38:48.616Z,3.30
2023-05-02T05:39:50.316Z,3.20
2023-05-02T05:40:52.196Z,3.60
2023-05-02T05:41:54.679Z,2.73
2023-05-02T05:42:58.345Z,2.40
2023-05-02T05:44:04.475Z,3.10
2023-05-02T05:45:07.435Z,2.60
2023-05-02T05:46:09.516Z,2.60
2023-05-02T05:47:12.896Z,3.00
2023-05-02T05:48:14.658Z,3.10
2023-05-02T05:49:19.750Z,2.63
2023-05-02T05:50:21.884Z,2.60
2023-05-02T05:51:23.526Z,3.37
2023-05-02T05:52:25.292Z,2.90
2023-05-02T05:53:28.516Z,3.00
2023-05-02T05:54:30.777Z,2.57
2023-05-02T05:55:35.363Z,3.23
2023-05-02T05:56:37.926Z,3.10
2023-05-02T05:57:46.624Z,2.90
2023-05-02T05:58:49.094Z,2.77
2023-05-02T05:59:52.155Z,3.07
2023-05-02T06:00:55.130Z,2.93
2023-05-02T06:01:56.580Z,3.33
2023-05-02T06:02:58.531Z,3.00
2023-05-02T06:04:05.052Z,2.87
2023-05-02T06:05:08.870Z,2.60
2023-05-02T06:06:10.520Z,2.83
2023-05-02T06:07:12.556Z,2.70
2023-05-02T06:08:14.001Z,3.40
2023-05-02T06:09:15.718Z,2.73
2023-05-02T06:10:17.332Z,2.70
2023-05-02T06:11:19.188Z,2.83
2023-05-02T06:12:21.458Z,2.50
2023-05-02T06:13:23.360Z,2.60
2023-05-02T06:14:25.563Z,3.30
2023-05-02T06:15:28.194Z,2.80
2023-05-02T06:16:29.875Z,2.70
2023-05-02T06:17:31.374Z,2.67
2023-05-02T06:18:32.934Z,3.00
2023-05-02T06:19:34.592Z,2.67
2023-05-02T06:20:37.106Z,2.43
2023-05-02T06:21:39.111Z,2.83
2023-05-02T06:22:41.541Z,3.30
2023-05-02T06:23:42.951Z,2.50
2023-05-02T06:24:44.412Z,2.90
2023-05-02T06:25:45.800Z,2.80
2023-05-02T06:26:47.276Z,3.43
2023-05-02T06:27:48.684Z,3.53
2023-05-02T06:28:50.122Z,2.70
2023-05-02T06:29:53.223Z,3.07
2023-05-02T06:31:04.811Z,2.63
2023-05-02T06:32:06.648Z,2.80
2023-05-02T06:33:08.309Z,3.47
2023-05-02T06:34:09.782Z,3.43
2023-05-02T06:35:12.156Z,3.43
2023-05-02T06:36:13.556Z,3.30
2023-05-02T06:37:14.947Z,3.10
2023-05-02T06:38:18.648Z,3.67
2023-05-02T06:39:20.271Z,3.50
2023-05-02T06:40:22.335Z,3.77
2023-05-02T06:41:23.916Z,3.90
2023-05-02T06:42:25.905Z,3.30
2023-05-02T06:43:28.320Z,3.30
2023-05-02T06:44:30.007Z,4.73
2023-05-02T06:45:31.416Z,3.87
2023-05-02T06:46:33.614Z,3.50
2023-05-02T06:47:35.428Z,3.93
2023-05-02T06:48:36.912Z,3.30
2023-05-02T06:49:38.352Z,3.20
2023-05-02T06:50:41.159Z,4.20
2023-05-02T06:51:43.174Z,4.40
2023-05-02T06:52:44.617Z,3.80
2023-05-02T06:53:46.408Z,3.53
2023-05-02T06:54:47.852Z,3.50
2023-05-02T06:55:49.638Z,4.27
2023-05-02T06:56:51.479Z,4.50
2023-05-02T06:57:54.149Z,3.63
2023-05-02T06:58:55.591Z,4.13
2023-05-02T06:59:57.443Z,3.93
2023-05-02T07:00:59.020Z,4.20
2023-05-02T07:02:01.555Z,3.30
2023-05-02T07:03:04.442Z,3.50
2023-05-02T07:04:06.224Z,3.87
2023-05-02T07:05:08.301Z,3.80
2023-05-02T07:06:10.502Z,3.67
2023-05-02T07:07:12.031Z,3.27
2023-05-02T07:08:13.625Z,4.50
2023-05-02T07:09:15.241Z,3.23
2023-05-02T07:10:16.672Z,3.40
2023-05-02T07:11:19.244Z,3.93
2023-05-02T07:12:21.433Z,3.50
2023-05-02T07:13:23.150Z,3.60
2023-05-02T07:14:24.918Z,3.83
2023-05-02T07:15:26.636Z,3.93
2023-05-02T07:16:28.376Z,3.57
2023-05-02T07:17:30.026Z,3.70
2023-05-02T07:18:31.694Z,3.33
2023-05-02T07:19:33.251Z,3.97
2023-05-02T07:20:34.733Z,3.53
2023-05-02T07:21:36.673Z,4.17
2023-05-02T07:22:38.611Z,3.77
2023-05-02T07:23:40.789Z,4.77
2023-05-02T07:24:42.528Z,3.50
2023-05-02T07:25:44.065Z,4.20
2023-05-02T07:26:45.691Z,4.20
2023-05-02T07:27:47.172Z,4.27
2023-05-02T07:28:48.944Z,3.87
2023-05-02T07:29:50.865Z,3.90
2023-05-02T07:30:52.616Z,4.40
2023-05-02T07:31:54.306Z,4.70
2023-05-02T07:32:55.903Z,4.43
2023-05-02T07:33:57.791Z,4.60
2023-05-02T07:34:59.344Z,4.57
2023-05-02T07:36:02.077Z,3.53
2023-05-02T07:37:03.570Z,4.20
2023-05-02T07:38:04.960Z,4.30
2023-05-02T07:39:06.311Z,4.17
2023-05-02T07:40:09.437Z,4.10
2023-05-02T07:41:11.317Z,4.97
2023-05-02T07:42:12.981Z,4.10
2023-05-02T07:43:15.969Z,4.43
2023-05-02T07:44:17.938Z,3.97
2023-05-02T07:45:19.439Z,4.80
2023-05-02T07:46:21.474Z,6.67
2023-05-02T07:47:23.021Z,4.67
2023-05-02T07:48:26.173Z,4.40
2023-05-02T07:49:29.391Z,4.20
2023-05-02T07:50:31.457Z,4.30
2023-05-02T07:51:33.035Z,4.20
2023-05-02T07:52:34.759Z,4.77
2023-05-02T07:53:36.614Z,5.30
2023-05-02T07:54:38.064Z,5.33
2023-05-02T07:55:39.450Z,5.10
2023-05-02T07:56:42.676Z,4.53
2023-05-02T07:57:44.385Z,4.57
2023-05-02T07:58:45.848Z,4.93
2023-05-02T07:59:47.428Z,4.63
2023-05-02T08:00:48.955Z,4.10
2023-05-02T08:01:50.680Z,4.67
2023-05-02T08:02:52.511Z,4.07
2023-05-02T08:03:54.189Z,4.63
2023-05-02T08:04:55.818Z,5.37
2023-05-02T08:05:57.683Z,4.60
2023-05-02T08:07:00.563Z,5.50
2023-05-02T08:08:02.734Z,4.87
2023-05-02T08:09:04.302Z,5.10
2023-05-02T08:10:07.015Z,6.10
2023-05-02T08:11:08.889Z,3.80
2023-05-02T08:12:10.704Z,4.90
2023-05-02T08:13:12.717Z,4.73
2023-05-02T08:14:15.117Z,4.50
2023-05-02T08:15:16.944Z,4.70
2023-05-02T08:16:19.482Z,4.93
2023-05-02T08:17:21.899Z,4.43
2023-05-02T08:18:26.569Z,4.30
2023-05-02T08:19:28.499Z,5.87
2023-05-02T08:20:29.937Z,4.80
2023-05-02T08:21:32.202Z,5.40
2023-05-02T08:22:33.742Z,4.70
2023-05-02T08:23:35.347Z,6.83
2023-05-02T08:24:36.825Z,4.83
2023-05-02T08:25:38.484Z,5.53
2023-05-02T08:26:39.941Z,4.80
2023-05-02T08:27:41.309Z,4.60
2023-05-02T08:28:42.687Z,5.90
2023-05-02T08:29:44.115Z,4.77
2023-05-02T08:30:45.711Z,4.23
2023-05-02T08:31:47.163Z,4.43
2023-05-02T08:32:48.617Z,4.33
2023-05-02T08:33:50.503Z,4.60
2023-05-02T08:34:55.527Z,4.77
2023-05-02T08:35:57.255Z,4.73
2023-05-02T08:36:58.754Z,5.03
2023-05-02T08:38:00.586Z,4.40
2023-05-02T08:39:02.169Z,5.57
2023-05-02T08:40:04.057Z,4.13
2023-05-02T08:41:17.669Z,4.93
2023-05-02T08:42:20.746Z,4.87
2023-05-02T08:43:22.944Z,4.70
2023-05-02T08:44:24.402Z,3.90
2023-05-02T08:45:26.125Z,5.03
2023-05-02T08:46:29.114Z,4.80
2023-05-02T08:47:32.643Z,3.90
2023-05-02T08:48:40.969Z,4.60
2023-05-02T08:49:43.589Z,4.60
2023-05-02T08:50:48.107Z,4.27
2023-05-02T08:51:51.716Z,4.33
2023-05-02T08:52:54.100Z,4.50
2023-05-02T08:53:57.300Z,4.60
2023-05-02T08:55:01.678Z,4.50
2023-05-02T08:56:04.040Z,4.50
2023-05-02T08:57:07.257Z,4.73
2023-05-02T08:58:10.320Z,4.80
2023-05-02T08:59:11.900Z,4.93
2023-05-02T09:00:13.820Z,4.57
2023-05-02T09:01:17.208Z,4.80
2023-05-02T09:02:48.001Z,3.60
2023-05-02T09:03:49.909Z,4.07
2023-05-02T09:04:55.796Z,4.67
2023-05-02T09:06:17.802Z,4.80
2023-05-02T09:07:19.250Z,3.80
2023-05-02T09:08:24.492Z,4.60
2023-05-02T09:09:26.820Z,4.50
2023-05-02T09:10:29.629Z,4.87
2023-05-02T09:11:31.578Z,4.53
2023-05-02T09:12:33.504Z,4.33
2023-05-02T09:13:39.254Z,4.80
2023-05-02T09:14:43.364Z,4.77
2023-05-02T09:15:58.913Z,3.70
2023-05-02T09:17:01.320Z,3.83
2023-05-02T09:18:03.764Z,4.60
2023-05-02T09:19:05.223Z,4.33
2023-05-02T09:20:07.481Z,4.30
2023-05-02T09:21:20.687Z,4.03
2023-05-02T09:22:23.828Z,4.07
2023-05-02T09:23:36.255Z,3.90
2023-05-02T09:24:38.532Z,4.33
2023-05-02T09:25:40.390Z,4.50
2023-05-02T09:26:41.861Z,3.13
2023-05-02T09:27:54.468Z,4.57
2023-05-02T09:28:57.149Z,3.90
2023-05-02T09:30:21.850Z,4.37
2023-05-02T09:31:49.564Z,5.30
2023-05-02T09:32:54.382Z,3.47
2023-05-02T09:33:58.872Z,4.90
2023-05-02T09:35:06.875Z,3.90
2023-05-02T09:36:10.952Z,3.70
2023-05-02T09:37:33.904Z,3.97
2023-05-02T09:38:35.640Z,4.03
2023-05-02T09:39:37.088Z,3.90
2023-05-02T09:40:38.815Z,3.63
2023-05-02T09:41:42.161Z,3.67
2023-05-02T09:42:43.761Z,3.67
2023-05-02T09:43:59.343Z,4.97
2023-05-02T09:45:01.193Z,3.67
2023-05-02T09:46:07.876Z,5.30
2023-05-02T09:47:09.602Z,4.20
2023-05-02T09:48:12.144Z,3.63
2023-05-02T09:49:20.473Z,4.63
2023-05-02T09:50:48.079Z,4.00
2023-05-02T09:52:11.349Z,4.47
2023-05-02T09:53:12.785Z,4.70
2023-05-02T09:54:14.958Z,3.80
2023-05-02T09:55:25.133Z,4.20
2023-05-02T09:56:26.637Z,4.60
2023-05-02T09:57:41.554Z,3.53
2023-05-02T09:58:42.933Z,4.57
2023-05-02T09:59:55.581Z,3.87
2023-05-02T10:00:58.203Z,4.10
2023-05-02T10:02:01.972Z,4.40
2023-05-02T10:03:07.005Z,4.40
2023-05-02T10:04:19.008Z,4.40
2023-05-02T10:05:21.111Z,4.50
2023-05-02T10:06:22.895Z,3.73
2023-05-02T10:07:25.951Z,4.87
2023-05-02T10:08:28.621Z,4.00
2023-05-02T10:09:32.740Z,4.70
2023-05-02T10:10:37.855Z,4.00
2023-05-02T10:11:42.802Z,4.07
2023-05-02T10:12:45.262Z,3.73
2023-05-02T10:13:47.528Z,4.43
2023-05-02T10:14:51.657Z,4.37
2023-05-02T10:16:04.031Z,4.43
2023-05-02T10:17:20.023Z,3.70
2023-05-02T10:18:28.880Z,5.00
2023-05-02T10:19:45.574Z,4.40
2023-05-02T10:21:05.771Z,4.27
2023-05-02T10:22:08.907Z,4.37
2023-05-02T10:23:11.517Z,3.33
2023-05-02T10:24:13.642Z,4.00
2023-05-02T10:25:15.606Z,3.90
2023-05-02T10:26:17.365Z,3.90
2023-05-02T10:27:19.021Z,3.40
2023-05-02T10:28:21.025Z,4.40
2023-05-02T10:29:23.618Z,4.50
2023-05-02T10:30:26.700Z,3.60
2023-05-02T10:31:33.759Z,3.40
2023-05-02T10:32:38.057Z,3.80
2023-05-02T10:33:40.085Z,3.93
2023-05-02T10:34:42.235Z,4.13
2023-05-02T10:35:47.296Z,3.63
2023-05-02T10:36:48.724Z,4.23
2023-05-02T10:37:50.967Z,3.33
2023-05-02T10:38:52.856Z,3.23
2023-05-02T10:39:54.823Z,3.73
2023-05-02T10:41:07.546Z,4.17
2023-05-02T10:42:09.706Z,4.50
2023-05-02T10:43:15.643Z,4.07
2023-05-02T10:44:19.273Z,3.83
2023-05-02T10:45:54.478Z,5.50
2023-05-02T10:46:56.423Z,4.30
2023-05-02T10:48:18.378Z,4.10
2023-05-02T10:49:22.951Z,3.73
2023-05-02T10:50:53.008Z,4.07
2023-05-02T10:51:54.470Z,4.20
2023-05-02T10:52:56.405Z,4.50
2023-05-02T10:54:16.450Z,4.83
2023-05-02T10:55:21.760Z,4.73
2023-05-02T10:56:28.479Z,4.47
2023-05-02T10:57:30.707Z,3.83
2023-05-02T10:58:32.800Z,4.90
2023-05-02T10:59:39.090Z,4.60
2023-05-02T11:00:40.616Z,3.93
2023-05-02T11:01:42.872Z,4.50
2023-05-02T11:02:44.634Z,4.60
2023-05-02T11:04:11.360Z,5.00
2023-05-02T11:05:13.105Z,5.17
2023-05-02T11:06:16.405Z,4.63
2023-05-02T11:07:18.962Z,5.87
2023-05-02T11:08:23.017Z,5.00
2023-05-02T11:09:24.826Z,5.67
2023-05-02T11:10:27.652Z,5.30
2023-05-02T11:11:48.285Z,4.90
2023-05-02T11:12:55.232Z,4.47
2023-05-02T11:13:56.568Z,5.20
2023-05-02T11:14:58.701Z,4.20
2023-05-02T11:16:00.908Z,5.03
2023-05-02T11:17:05.430Z,4.60
2023-05-02T11:18:14.040Z,4.10
2023-05-02T11:19:16.361Z,5.20
2023-05-02T11:20:20.835Z,4.43
2023-05-02T11:21:29.888Z,4.33
2023-05-02T11:22:32.182Z,4.60
2023-05-02T11:23:37.060Z,4.67
2023-05-02T11:24:40.095Z,4.83
2023-05-02T11:25:43.676Z,4.33
2023-05-02T11:26:45.265Z,5.67
2023-05-02T11:27:49.282Z,5.37
2023-05-02T11:28:51.196Z,4.87
2023-05-02T11:29:53.901Z,5.20
2023-05-02T11:30:56.125Z,5.50
2023-05-02T11:31:58.195Z,6.03
2023-05-02T11:33:05.482Z,5.40
2023-05-02T11:34:07.058Z,5.60
2023-05-02T11:35:08.697Z,6.27
2023-05-02T11:36:10.434Z,5.20
2023-05-02T11:37:15.869Z,5.20
2023-05-02T11:38:18.930Z,5.10
2023-05-02T11:39:24.188Z,5.30
2023-05-02T11:40:27.070Z,5.47
2023-05-02T11:41:41.544Z,5.10
2023-05-02T11:42:43.369Z,6.10
2023-05-02T11:43:44.845Z,4.60
2023-05-02T11:44:59.728Z,5.23
2023-05-02T11:46:02.736Z,5.40
2023-05-02T11:47:04.553Z,5.17
2023-05-02T11:48:07.992Z,4.77
2023-05-02T11:49:12.014Z,4.90
2023-05-02T11:50:18.344Z,4.30
2023-05-02T11:51:23.352Z,4.50
2023-05-02T11:52:25.172Z,4.60
2023-05-02T11:53:31.672Z,4.43
2023-05-02T11:54:33.265Z,4.53
2023-05-02T11:55:35.652Z,5.13
2023-05-02T11:56:37.361Z,4.43
2023-05-02T11:57:40.382Z,5.30
2023-05-02T11:58:41.766Z,5.20
2023-05-02T11:59:50.989Z,5.30
2023-05-02T12:00:53.620Z,5.60
2023-05-02T12:01:55.853Z,4.60
2023-05-02T12:02:57.353Z,4.73
2023-05-02T12:04:07.500Z,4.80
2023-05-02T12:05:11.105Z,5.10
2023-05-02T12:06:18.985Z,5.23
2023-05-02T12:07:33.899Z,5.37
2023-05-02T12:08:35.494Z,5.07
2023-05-02T12:09:49.750Z,4.43
2023-05-02T12:10:52.700Z,3.80
2023-05-02T12:11:54.827Z,4.63
2023-05-02T12:13:06.389Z,4.93
2023-05-02T12:14:07.942Z,4.00
2023-05-02T12:15:11.788Z,4.47
2023-05-02T12:16:14.407Z,4.03
2023-05-02T12:17:16.861Z,5.20
2023-05-02T12:18:22.080Z,4.87
2023-05-02T12:19:23.915Z,4.03
2023-05-02T12:20:25.841Z,4.47
2023-05-02T12:21:33.026Z,4.90
2023-05-02T12:22:34.982Z,4.70
2023-05-02T12:23:37.650Z,4.60
2023-05-02T12:24:39.293Z,4.33
2023-05-02T12:25:43.008Z,4.30
2023-05-02T12:26:44.460Z,4.40
2023-05-02T12:28:02.357Z,4.80
2023-05-02T12:29:07.678Z,3.87
2023-05-02T12:30:09.393Z,4.03
2023-05-02T12:31:11.413Z,4.50
2023-05-02T12:32:13.919Z,4.40
2023-05-02T12:33:17.102Z,4.43
2023-05-02T12:34:35.011Z,4.20
2023-05-02T12:35:36.985Z,4.67
2023-05-02T12:36:45.146Z,4.23
2023-05-02T12:37:47.357Z,5.00
2023-05-02T12:38:53.305Z,4.33
2023-05-02T12:39:56.840Z,3.93
2023-05-02T12:40:58.498Z,4.03
2023-05-02T12:41:59.951Z,4.00
2023-05-02T12:43:04.290Z,4.23
2023-05-02T12:44:07.600Z,4.30
2023-05-02T12:45:18.920Z,4.10
2023-05-02T12:46:20.703Z,3.97
2023-05-02T12:47:26.424Z,3.37
2023-05-02T12:48:28.430Z,3.70
2023-05-02T12:49:30.165Z,4.00
2023-05-02T12:50:41.145Z,4.13
2023-05-02T12:51:53.657Z,4.30
2023-05-02T12:52:59.937Z,3.70
2023-05-02T12:54:01.630Z,5.40
2023-05-02T12:55:24.408Z,6.67
2023-05-02T12:56:32.065Z,5.30
2023-05-02T12:57:33.920Z,4.47
2023-05-02T12:58:46.219Z,4.60
2023-05-02T12:59:47.717Z,4.20
2023-05-02T13:00:49.599Z,4.50
2023-05-02T13:01:51.699Z,3.87
2023-05-02T13:02:53.296Z,4.70
2023-05-02T13:03:55.020Z,5.23
2023-05-02T13:04:57.367Z,3.80
2023-05-02T13:05:58.793Z,4.60
2023-05-02T13:07:01.185Z,5.03
2023-05-02T13:08:02.994Z,5.00
2023-05-02T13:09:04.873Z,4.20
2023-05-02T13:10:07.007Z,4.30
2023-05-02T13:11:09.149Z,4.00
2023-05-02T13:12:10.945Z,3.30
2023-05-02T13:13:12.493Z,4.13
2023-05-02T13:14:13.940Z,3.80
2023-05-02T13:15:15.807Z,3.80
2023-05-02T13:16:17.392Z,4.37
2023-05-02T13:17:18.873Z,4.40
2023-05-02T13:18:20.451Z,3.47
2023-05-02T13:19:22.843Z,4.33
2023-05-02T13:20:24.398Z,4.23
2023-05-02T13:21:25.869Z,3.90
2023-05-02T13:22:27.866Z,4.90
2023-05-02T13:23:29.519Z,4.40
2023-05-02T13:24:31.093Z,4.00
2023-05-02T13:25:32.707Z,4.83
2023-05-02T13:26:34.181Z,3.97
2023-05-02T13:27:36.054Z,4.47
2023-05-02T13:28:41.445Z,4.00
2023-05-02T13:29:42.865Z,4.23
2023-05-02T13:30:44.358Z,4.10
2023-05-02T13:31:46.279Z,4.10
2023-05-02T13:32:47.686Z,3.93
2023-05-02T13:33:49.516Z,3.87
2023-05-02T13:34:51.347Z,4.23
2023-05-02T13:35:52.971Z,4.40
2023-05-02T13:36:54.543Z,4.13
2023-05-02T13:37:56.012Z,3.83
2023-05-02T13:38:57.897Z,4.43
2023-05-02T13:40:00.370Z,4.60
2023-05-02T13:41:02.553Z,3.93
2023-05-02T13:42:06.074Z,4.00
2023-05-02T13:43:07.694Z,3.60
2023-05-02T13:44:09.422Z,3.97
2023-05-02T13:45:11.529Z,4.20
2023-05-02T13:46:13.020Z,4.20
2023-05-02T13:47:14.454Z,3.83
2023-05-02T13:48:16.094Z,3.73
2023-05-02T13:49:18.218Z,3.23
2023-05-02T13:50:19.736Z,3.40
2023-05-02T13:51:21.508Z,4.37
2023-05-02T13:52:23.006Z,3.33
2023-05-02T13:53:24.627Z,3.67
2023-05-02T13:54:26.235Z,3.70
2023-05-02T13:55:27.688Z,3.90
2023-05-02T13:56:29.480Z,4.50
2023-05-02T13:57:31.764Z,3.70
2023-05-02T13:58:33.262Z,3.90
2023-05-02T13:59:34.836Z,3.97
2023-05-02T14:00:36.290Z,3.40
2023-05-02T14:01:40.519Z,3.30
2023-05-02T14:02:42.308Z,3.57
2023-05-02T14:03:44.409Z,3.40
2023-05-02T14:04:45.969Z,2.77
2023-05-02T14:05:48.052Z,3.13
2023-05-02T14:06:50.207Z,3.60
2023-05-02T14:07:51.893Z,3.30
2023-05-02T14:08:53.459Z,3.63
2023-05-02T14:09:54.833Z,3.37
2023-05-02T14:10:56.639Z,3.70
2023-05-02T14:11:59.213Z,3.00
2023-05-02T14:13:00.679Z,3.40
2023-05-02T14:14:02.188Z,3.37
2023-05-02T14:15:03.764Z,3.43
2023-05-02T14:16:05.658Z,3.50
2023-05-02T14:17:07.179Z,3.50